createdAt,value
2018-09-01T00:01:06.819Z,2.40
2018-09-01T00:03:35.834Z,2.80
2018-09-01T00:06:04.852Z,2.60
2018-09-01T00:08:34.591Z,2.37
2018-09-01T00:11:03.993Z,2.67
2018-09-01T00:13:33.165Z,2.20
2018-09-01T00:16:02.269Z,2.50
2018-09-01T00:18:31.719Z,2.47
2018-09-01T00:21:01.963Z,2.50
2018-09-01T00:23:30.706Z,2.30
2018-09-01T00:26:00.005Z,2.57
2018-09-01T00:28:28.737Z,2.30
2018-09-01T00:30:57.664Z,2.30
2018-09-01T00:33:26.443Z,2.43
2018-09-01T00:35:55.744Z,2.20
2018-09-01T00:38:29.738Z,2.77
2018-09-01T00:40:58.536Z,1.83
2018-09-01T00:43:27.948Z,1.97
2018-09-01T00:45:56.748Z,2.63
2018-09-01T00:48:25.499Z,2.30
2018-09-01T00:50:54.393Z,2.07
2018-09-01T00:53:23.111Z,2.17
2018-09-01T00:55:55.090Z,1.60
2018-09-01T00:58:25.209Z,1.57
2018-09-01T01:00:55.367Z,2.13
2018-09-01T01:03:25.216Z,1.80
2018-09-01T01:05:54.641Z,1.67
2018-09-01T01:08:24.879Z,3.30
2018-09-01T01:10:53.889Z,2.17
2018-09-01T01:13:22.931Z,2.70
2018-09-01T01:18:42.056Z,2.40
2018-09-01T01:21:10.892Z,2.27
2018-09-01T01:23:39.685Z,2.50
2018-09-01T01:26:09.540Z,1.90
2018-09-01T01:28:38.344Z,1.50
2018-09-01T01:31:07.781Z,2.00
2018-09-01T01:33:36.914Z,1.57
2018-09-01T01:36:05.703Z,1.67
2018-09-01T01:38:34.429Z,1.97
2018-09-01T01:41:03.466Z,1.67
2018-09-01T01:43:32.686Z,1.77
2018-09-01T01:46:01.455Z,2.10
2018-09-01T01:48:30.758Z,1.50
2018-09-01T01:50:59.530Z,2.60
2018-09-01T01:53:28.293Z,1.80
2018-09-01T01:55:57.347Z,2.00
2018-09-01T01:58:26.386Z,2.53
2018-09-01T02:00:55.421Z,2.10
2018-09-01T02:03:24.652Z,1.93
2018-09-01T02:05:53.627Z,2.17
2018-09-01T02:08:22.422Z,1.73
2018-09-01T02:10:51.224Z,2.00
2018-09-01T02:13:19.974Z,1.63
2018-09-01T02:15:48.801Z,1.90
2018-09-01T02:18:17.831Z,1.50
2018-09-01T02:20:46.876Z,2.30
2018-09-01T02:23:15.641Z,1.97
2018-09-01T02:25:44.653Z,2.20
2018-09-01T02:28:13.699Z,1.87
2018-09-01T02:30:42.447Z,1.73
2018-09-01T02:33:11.551Z,1.80
2018-09-01T02:35:40.527Z,1.90
2018-09-01T02:38:09.830Z,3.10
2018-09-01T02:40:38.668Z,1.73
2018-09-01T02:43:07.716Z,1.73
2018-09-01T02:45:36.766Z,2.10
2018-09-01T02:48:05.795Z,2.13
2018-09-01T02:50:34.569Z,1.77
2018-09-01T02:53:03.676Z,2.00
2018-09-01T02:55:32.432Z,1.77
2018-09-01T02:58:01.190Z,2.10
2018-09-01T03:00:35.969Z,1.40
2018-09-01T03:03:04.761Z,1.80
2018-09-01T03:05:33.516Z,2.17
2018-09-01T03:08:02.912Z,1.83
2018-09-01T03:10:31.701Z,2.07
2018-09-01T03:13:00.757Z,2.20
2018-09-01T03:15:30.115Z,2.30
2018-09-01T03:17:59.433Z,1.60
2018-09-01T03:20:28.243Z,2.10
2018-09-01T03:22:57.006Z,1.60
2018-09-01T03:25:26.343Z,1.77
2018-09-01T03:27:55.115Z,1.67
2018-09-01T03:30:24.016Z,1.53
2018-09-01T03:32:53.161Z,2.40
2018-09-01T03:35:22.169Z,2.07
2018-09-01T03:37:51.514Z,1.70
2018-09-01T03:40:20.595Z,1.40
2018-09-01T03:42:50.027Z,1.90
2018-09-01T03:45:19.200Z,2.47
2018-09-01T03:47:48.002Z,1.87
2018-09-01T03:50:16.796Z,1.50
2018-09-01T03:52:46.369Z,2.50
2018-09-01T03:55:15.802Z,1.80
2018-09-01T03:57:45.543Z,1.57
2018-09-01T04:00:14.653Z,1.63
2018-09-01T04:02:43.538Z,2.37
2018-09-01T04:05:12.297Z,2.20
2018-09-01T04:07:41.448Z,1.90
2018-09-01T04:10:10.696Z,1.60
2018-09-01T04:12:40.451Z,2.20
2018-09-01T04:15:09.571Z,1.93
2018-09-01T04:17:38.605Z,1.90
2018-09-01T04:20:07.354Z,1.80
2018-09-01T04:22:36.487Z,1.90
2018-09-01T04:25:05.297Z,2.00
2018-09-01T04:27:34.063Z,1.73
2018-09-01T04:30:03.152Z,2.00
2018-09-01T04:32:32.204Z,1.90
2018-09-01T04:35:01.409Z,1.67
2018-09-01T04:37:30.239Z,2.40
2018-09-01T04:39:59.003Z,1.63
2018-09-01T04:42:27.783Z,1.93
2018-09-01T04:44:57.039Z,2.20
2018-09-01T04:47:26.058Z,2.40
2018-09-01T04:49:55.225Z,2.23
2018-09-01T04:52:23.995Z,2.17
2018-09-01T04:54:53.503Z,1.90
2018-09-01T04:57:22.306Z,3.07
2018-09-01T04:59:51.394Z,2.40
2018-09-01T05:02:20.135Z,1.93
2018-09-01T05:04:48.990Z,2.23
2018-09-01T05:07:18.353Z,2.43
2018-09-01T05:09:47.755Z,2.63
2018-09-01T05:12:16.498Z,2.47
2018-09-01T05:14:46.614Z,2.30
2018-09-01T05:17:16.099Z,1.73
2018-09-01T05:19:45.656Z,2.00
2018-09-01T05:22:14.461Z,2.40
2018-09-01T05:24:43.236Z,3.07
2018-09-01T05:27:12.376Z,3.07
2018-09-01T05:29:41.165Z,2.73
2018-09-01T05:32:10.448Z,2.87
2018-09-01T05:34:39.231Z,2.17
2018-09-01T05:37:08.329Z,2.43
2018-09-01T05:39:37.122Z,2.60
2018-09-01T05:42:06.231Z,2.20
2018-09-01T05:44:35.604Z,1.90
2018-09-01T05:47:04.595Z,2.57
2018-09-01T05:49:33.805Z,2.87
2018-09-01T05:52:02.687Z,2.63
2018-09-01T05:54:32.148Z,2.57
2018-09-01T05:57:01.672Z,2.27
2018-09-01T05:59:30.452Z,1.93
2018-09-01T06:01:59.239Z,3.00
2018-09-01T06:04:28.219Z,2.60
2018-09-01T06:06:57.040Z,3.03
2018-09-01T06:09:25.812Z,2.70
2018-09-01T06:11:54.533Z,2.90
2018-09-01T06:14:23.990Z,3.17
2018-09-01T06:16:52.811Z,4.07
2018-09-01T06:19:21.884Z,5.00
2018-09-01T06:21:51.269Z,4.30
2018-09-01T06:24:20.640Z,3.57
2018-09-01T06:26:49.502Z,3.37
2018-09-01T06:29:19.597Z,3.07
2018-09-01T06:31:53.757Z,4.10
2018-09-01T06:34:22.899Z,2.77
2018-09-01T06:36:51.926Z,3.07
2018-09-01T06:39:21.037Z,3.13
2018-09-01T06:41:51.136Z,3.63
2018-09-01T06:44:20.875Z,3.50
2018-09-01T06:46:49.882Z,3.33
2018-09-01T06:49:19.369Z,3.90
2018-09-01T06:51:48.836Z,4.77
2018-09-01T06:54:17.628Z,4.00
2018-09-01T06:56:46.438Z,3.93
2018-09-01T06:59:15.189Z,4.13
2018-09-01T07:01:44.563Z,4.53
2018-09-01T07:04:13.663Z,3.87
2018-09-01T07:06:43.097Z,5.57
2018-09-01T07:09:11.856Z,4.57
2018-09-01T07:11:40.866Z,4.50
2018-09-01T07:14:09.645Z,4.53
2018-09-01T07:16:38.369Z,3.67
2018-09-01T07:19:07.350Z,3.30
2018-09-01T07:21:36.196Z,3.80
2018-09-01T07:24:04.933Z,3.30
2018-09-01T07:26:34.293Z,3.50
2018-09-01T07:29:03.078Z,3.43
2018-09-01T07:31:32.423Z,2.73
2018-09-01T07:34:01.201Z,2.77
2018-09-01T07:36:30.263Z,3.80
2018-09-01T07:38:59.257Z,3.90
2018-09-01T07:41:28.404Z,3.60
2018-09-01T07:43:57.434Z,3.53
2018-09-01T07:46:26.202Z,3.20
2018-09-01T07:48:55.359Z,3.03
2018-09-01T07:51:24.433Z,3.10
2018-09-01T07:53:53.223Z,2.90
2018-09-01T07:56:21.963Z,3.33
2018-09-01T07:58:50.719Z,2.57
2018-09-01T08:01:19.913Z,3.03
2018-09-01T08:03:48.996Z,2.60
2018-09-01T08:06:17.743Z,2.37
2018-09-01T08:08:46.533Z,2.70
2018-09-01T08:11:15.542Z,1.90
2018-09-01T08:13:44.854Z,2.07
2018-09-01T08:16:14.050Z,2.00
2018-09-01T08:18:43.161Z,2.50
2018-09-01T08:21:12.282Z,1.70
2018-09-01T08:23:41.197Z,1.80
2018-09-01T08:26:10.077Z,1.73
2018-09-01T08:28:38.810Z,1.70
2018-09-01T08:31:07.587Z,2.37
2018-09-01T08:33:36.387Z,1.70
2018-09-01T08:36:05.197Z,1.47
2018-09-01T08:38:34.535Z,1.87
2018-09-01T08:41:03.605Z,1.40
2018-09-01T08:43:32.368Z,1.47
2018-09-01T08:46:01.194Z,1.10
2018-09-01T08:48:30.184Z,1.27
2018-09-01T08:50:59.246Z,1.10
2018-09-01T08:53:28.627Z,1.00
2018-09-01T08:55:57.594Z,0.70
2018-09-01T08:58:27.344Z,1.17
2018-09-01T09:00:56.071Z,1.00
2018-09-01T09:03:25.202Z,1.07
2018-09-01T09:05:54.275Z,1.17
2018-09-01T09:08:23.009Z,1.10
2018-09-01T09:10:51.994Z,1.17
2018-09-01T09:13:21.319Z,1.10
2018-09-01T09:15:50.320Z,0.70
2018-09-01T09:18:19.088Z,1.33
2018-09-01T09:20:48.420Z,1.00
2018-09-01T09:23:17.161Z,1.27
2018-09-01T09:25:46.310Z,0.90
2018-09-01T09:28:15.322Z,0.90
2018-09-01T09:30:44.435Z,0.97
2018-09-01T09:33:13.508Z,0.77
2018-09-01T09:35:42.597Z,0.80
2018-09-01T09:38:11.381Z,0.90
2018-09-01T09:40:40.460Z,0.80
2018-09-01T09:43:09.291Z,0.90
2018-09-01T09:45:38.372Z,0.87
2018-09-01T09:48:07.109Z,1.13
2018-09-01T09:50:35.910Z,0.70
2018-09-01T09:53:04.767Z,1.43
2018-09-01T09:55:34.472Z,0.73
2018-09-01T09:58:03.592Z,0.97
2018-09-01T10:00:37.482Z,1.20
2018-09-01T10:03:06.272Z,0.90
2018-09-01T10:05:35.299Z,1.20
2018-09-01T10:08:04.065Z,0.97
2018-09-01T10:10:32.845Z,0.90
2018-09-01T10:13:01.629Z,0.90
2018-09-01T10:15:31.313Z,0.97
2018-09-01T10:18:00.433Z,1.43
2018-09-01T10:20:29.651Z,1.23
2018-09-01T10:22:58.889Z,1.50
2018-09-01T10:25:28.958Z,1.27
2018-09-01T10:27:57.970Z,1.10
2018-09-01T10:30:26.723Z,1.00
2018-09-01T10:32:55.788Z,1.23
2018-09-01T10:35:24.713Z,0.93
2018-09-01T10:37:53.524Z,1.23
2018-09-01T10:40:22.667Z,0.90
2018-09-01T10:42:51.680Z,0.83
2018-09-01T10:45:20.922Z,0.93
2018-09-01T10:47:49.685Z,0.90
2018-09-01T10:50:18.751Z,0.97
2018-09-01T10:52:47.796Z,0.60
2018-09-01T10:55:16.580Z,1.17
2018-09-01T10:57:45.321Z,1.10
2018-09-01T11:00:14.449Z,0.73
2018-09-01T11:02:43.259Z,0.87
2018-09-01T11:05:12.013Z,0.80
2018-09-01T11:07:41.051Z,1.00
2018-09-01T11:10:09.867Z,1.07
2018-09-01T11:12:38.931Z,0.97
2018-09-01T11:15:07.659Z,1.10
2018-09-01T11:17:36.491Z,1.10
2018-09-01T11:20:05.340Z,0.90
2018-09-01T11:22:34.719Z,0.97
2018-09-01T11:25:03.567Z,0.90
2018-09-01T11:27:32.601Z,1.70
2018-09-01T11:30:01.390Z,1.10
2018-09-01T11:32:30.107Z,1.33
2018-09-01T11:34:58.875Z,1.43
2018-09-01T11:37:27.828Z,1.47
2018-09-01T11:39:56.534Z,1.47
2018-09-01T11:42:25.323Z,0.90
2018-09-01T11:44:54.074Z,1.03
2018-09-01T11:47:23.125Z,1.20
2018-09-01T11:49:52.206Z,1.93
2018-09-01T11:52:21.563Z,1.30
2018-09-01T11:54:50.272Z,0.97
2018-09-01T11:57:19.363Z,1.47
2018-09-01T11:59:48.330Z,0.80
2018-09-01T12:02:17.511Z,1.20
2018-09-01T12:04:46.519Z,1.00
2018-09-01T12:07:15.340Z,1.20
2018-09-01T12:09:44.161Z,1.20
2018-09-01T12:12:12.909Z,1.20
2018-09-01T12:14:41.966Z,0.87
2018-09-01T12:17:10.710Z,0.80
2018-09-01T12:19:40.057Z,1.30
2018-09-01T12:22:09.067Z,1.27
2018-09-01T12:24:38.143Z,0.97
2018-09-01T12:27:07.437Z,0.93
2018-09-01T12:29:36.618Z,1.30
2018-09-01T12:32:05.864Z,0.90
2018-09-01T12:34:35.656Z,1.10
2018-09-01T12:37:04.712Z,0.93
2018-09-01T12:39:33.692Z,1.50
2018-09-01T12:42:03.270Z,1.37
2018-09-01T12:44:31.987Z,0.80
2018-09-01T12:47:00.986Z,1.23
2018-09-01T12:49:30.617Z,0.70
2018-09-01T12:51:59.854Z,1.20
2018-09-01T12:54:28.609Z,1.70
2018-09-01T12:56:57.646Z,1.23
2018-09-01T12:59:26.825Z,0.90
2018-09-01T13:01:55.565Z,1.10
2018-09-01T13:04:24.262Z,0.97
2018-09-01T13:06:53.381Z,1.17
2018-09-01T13:09:22.642Z,0.97
2018-09-01T13:11:51.362Z,0.97
2018-09-01T13:14:20.124Z,1.07
2018-09-01T13:16:49.096Z,0.97
2018-09-01T13:19:18.215Z,1.07
2018-09-01T13:21:47.025Z,0.87
2018-09-01T13:24:15.785Z,1.30
2018-09-01T13:26:44.519Z,0.63
2018-09-01T13:29:13.329Z,1.00
2018-09-01T13:31:42.788Z,0.90
2018-09-01T13:34:11.583Z,1.20
2018-09-01T13:36:40.333Z,1.33
2018-09-01T13:39:09.115Z,1.40
2018-09-01T13:41:37.835Z,2.17
2018-09-01T13:44:07.314Z,1.80
2018-09-01T13:46:36.352Z,0.90
2018-09-01T13:49:05.393Z,1.13
2018-09-01T13:51:34.483Z,1.20
2018-09-01T13:54:03.259Z,1.63
2018-09-01T13:56:31.967Z,1.33
2018-09-01T13:59:00.728Z,1.40
2018-09-01T14:01:29.787Z,1.33
2018-09-01T14:03:58.823Z,1.30
2018-09-01T14:06:28.264Z,1.30
2018-09-01T14:08:57.275Z,1.20
2018-09-01T14:11:26.686Z,1.00
2018-09-01T14:13:55.468Z,0.77
2018-09-01T14:16:24.899Z,1.20
2018-09-01T14:18:53.672Z,1.00
2018-09-01T14:21:22.382Z,1.20
2018-09-01T14:23:51.828Z,1.30
2018-09-01T14:26:21.054Z,1.20
2018-09-01T14:28:49.771Z,1.47
2018-09-01T14:31:19.053Z,1.23
2018-09-01T14:33:48.123Z,1.07
2018-09-01T14:36:17.172Z,0.80
2018-09-01T14:38:46.309Z,1.00
2018-09-01T14:41:15.091Z,1.33
2018-09-01T14:43:44.111Z,1.53
2018-09-01T14:46:13.293Z,0.80
2018-09-01T14:48:42.040Z,1.40
2018-09-01T14:51:10.803Z,1.20
2018-09-01T14:53:40.019Z,1.17
2018-09-01T14:56:08.940Z,1.03
2018-09-01T14:58:37.677Z,1.87
2018-09-01T15:01:06.442Z,0.80
2018-09-01T15:03:35.258Z,0.90
2018-09-01T15:06:04.029Z,1.27
2018-09-01T15:08:33.208Z,1.20
2018-09-01T15:11:02.293Z,1.20
2018-09-01T15:13:31.122Z,1.23
2018-09-01T15:16:00.274Z,1.40
2018-09-01T15:18:29.288Z,1.30
2018-09-01T15:20:58.641Z,1.17
2018-09-01T15:23:27.481Z,1.37
2018-09-01T15:25:56.206Z,1.30
2018-09-01T15:28:25.011Z,1.60
2018-09-01T15:30:54.018Z,1.53
2018-09-01T15:33:22.693Z,1.30
2018-09-01T15:35:51.450Z,1.20
2018-09-01T15:38:20.811Z,1.00
2018-09-01T15:40:49.892Z,1.20
2018-09-01T15:43:18.838Z,1.50
2018-09-01T15:45:47.608Z,1.33
2018-09-01T15:48:16.458Z,0.80
2018-09-01T15:50:45.635Z,1.00
2018-09-01T15:53:15.064Z,1.60
2018-09-01T15:55:44.185Z,1.80
2018-09-01T15:58:12.966Z,1.63
2018-09-01T16:00:41.676Z,1.30
2018-09-01T16:03:10.863Z,1.53
2018-09-01T16:05:39.916Z,1.40
2018-09-01T16:08:08.895Z,1.60
2018-09-01T16:10:37.623Z,1.80
2018-09-01T16:13:13.334Z,0.97
2018-09-01T16:15:42.349Z,1.33
2018-09-01T16:18:11.164Z,1.23
2018-09-01T16:20:40.212Z,0.90
2018-09-01T16:23:09.333Z,1.00
2018-09-01T16:25:38.715Z,1.20
2018-09-01T16:28:07.519Z,1.40
2018-09-01T16:30:36.317Z,0.70
2018-09-01T16:33:05.044Z,1.37
2018-09-01T16:35:33.760Z,1.40
2018-09-01T16:38:02.969Z,1.90
2018-09-01T16:40:31.982Z,1.70
2018-09-01T16:43:00.722Z,1.30
2018-09-01T16:45:30.405Z,1.13
2018-09-01T16:47:59.415Z,1.47
2018-09-01T16:50:28.458Z,1.43
2018-09-01T16:52:57.153Z,1.27
2018-09-01T16:55:26.492Z,1.07
2018-09-01T16:57:55.762Z,1.77
2018-09-01T17:00:24.539Z,1.17
2018-09-01T17:02:53.239Z,1.40
2018-09-01T17:05:21.961Z,1.40
2018-09-01T17:07:50.780Z,0.97
2018-09-01T17:10:20.154Z,0.87
2018-09-01T17:12:49.343Z,0.97
2018-09-01T17:15:18.598Z,0.77
2018-09-01T17:17:47.855Z,1.30
2018-09-01T17:20:17.147Z,1.07
2018-09-01T17:22:46.511Z,0.87
2018-09-01T17:25:15.604Z,1.00
2018-09-01T17:27:44.617Z,0.87
2018-09-01T17:30:13.638Z,0.90
2018-09-01T17:32:42.878Z,0.73
2018-09-01T17:35:12.103Z,0.60
2018-09-01T17:37:41.270Z,1.10
2018-09-01T17:40:10.321Z,1.00
2018-09-01T17:42:39.400Z,0.90
2018-09-01T17:45:08.758Z,1.07
2018-09-01T17:47:37.436Z,1.00
2018-09-01T17:50:06.561Z,1.27
2018-09-01T17:52:36.015Z,1.00
2018-09-01T17:55:05.498Z,1.13
2018-09-01T17:57:34.579Z,0.97
2018-09-01T18:00:03.809Z,1.50
2018-09-01T18:02:32.624Z,1.20
2018-09-01T18:05:01.384Z,1.23
2018-09-01T18:07:30.099Z,1.33
2018-09-01T18:09:59.370Z,1.00
2018-09-01T18:12:28.417Z,1.30
2018-09-01T18:14:57.161Z,1.17
2018-09-01T18:17:26.070Z,1.00
2018-09-01T18:19:54.803Z,0.93
2018-09-01T18:22:23.601Z,1.30
2018-09-01T18:24:52.305Z,1.40
2018-09-01T18:27:21.358Z,1.10
2018-09-01T18:29:50.342Z,0.73
2018-09-01T18:32:19.112Z,0.70
2018-09-01T18:34:48.146Z,1.20
2018-09-01T18:37:16.830Z,1.13
2018-09-01T18:39:45.646Z,0.80
2018-09-01T18:42:14.834Z,0.80
2018-09-01T18:44:43.887Z,1.00
2018-09-01T18:47:12.677Z,1.03
2018-09-01T18:49:42.068Z,0.90
2018-09-01T18:52:10.875Z,1.10
2018-09-01T18:54:40.063Z,0.90
2018-09-01T18:57:09.175Z,0.87
2018-09-01T18:59:38.257Z,1.00
2018-09-01T19:02:07.027Z,1.10
2018-09-01T19:04:35.758Z,1.13
2018-09-01T19:07:04.462Z,0.97
2018-09-01T19:09:33.237Z,0.90
2018-09-01T19:12:02.202Z,1.20
2018-09-01T19:14:32.096Z,1.00
2018-09-01T19:17:01.054Z,1.10
2018-09-01T19:19:29.865Z,1.07
2018-09-01T19:21:58.752Z,1.30
2018-09-01T19:24:27.631Z,1.07
2018-09-01T19:26:56.695Z,1.10
2018-09-01T19:29:26.185Z,1.20
2018-09-01T19:31:57.927Z,1.37
2018-09-01T19:34:27.130Z,1.27
2018-09-01T19:36:55.853Z,1.20
2018-09-01T19:39:24.629Z,1.30
2018-09-01T19:41:53.976Z,1.00
2018-09-01T19:44:22.699Z,1.33
2018-09-01T19:46:51.711Z,1.40
2018-09-01T19:49:20.494Z,1.53
2018-09-01T19:51:49.245Z,1.30
2018-09-01T19:54:18.260Z,1.33
2018-09-01T19:56:46.952Z,1.10
2018-09-01T19:59:15.778Z,1.70
2018-09-01T20:01:44.907Z,1.90
2018-09-01T20:04:13.945Z,1.40
2018-09-01T20:06:42.798Z,1.40
2018-09-01T20:09:11.547Z,1.40
2018-09-01T20:11:40.603Z,1.80
2018-09-01T20:14:09.948Z,1.70
2018-09-01T20:16:38.637Z,2.07
2018-09-01T20:19:07.387Z,1.70
2018-09-01T20:21:36.187Z,2.50
2018-09-01T20:24:05.120Z,2.27
2018-09-01T20:26:34.162Z,1.50
2018-09-01T20:29:02.920Z,1.80
2018-09-01T20:31:32.191Z,1.97
2018-09-01T20:34:02.106Z,1.83
2018-09-01T20:36:31.167Z,1.90
2018-09-01T20:39:00.250Z,2.03
2018-09-01T20:41:29.247Z,2.10
2018-09-01T20:43:58.783Z,1.40
2018-09-01T20:46:27.482Z,2.83
2018-09-01T20:48:56.635Z,2.20
2018-09-01T20:51:25.830Z,1.80
2018-09-01T20:53:55.211Z,2.67
2018-09-01T20:56:24.323Z,2.83
2018-09-01T20:58:53.213Z,2.20
2018-09-01T21:01:21.953Z,2.40
2018-09-01T21:03:50.985Z,2.23
2018-09-01T21:06:20.148Z,2.33
2018-09-01T21:08:48.913Z,2.67
2018-09-01T21:11:18.090Z,1.93
2018-09-01T21:13:47.038Z,2.53
2018-09-01T21:16:16.081Z,2.20
2018-09-01T21:18:45.209Z,2.17
2018-09-01T21:21:15.179Z,2.20
2018-09-01T21:23:43.910Z,2.30
2018-09-01T21:26:13.004Z,2.47
2018-09-01T21:28:42.445Z,3.07
2018-09-01T21:31:11.293Z,2.33
2018-09-01T21:33:40.068Z,2.97
2018-09-01T21:36:09.979Z,3.03
2018-09-01T21:38:38.866Z,3.07
2018-09-01T21:41:07.665Z,2.27
2018-09-01T21:43:37.114Z,2.50
2018-09-01T21:46:06.005Z,2.77
2018-09-01T21:48:35.080Z,2.80
2018-09-01T21:51:04.489Z,2.23
2018-09-01T21:53:33.242Z,3.17
2018-09-01T21:56:02.439Z,2.97
2018-09-01T21:58:31.868Z,3.73
2018-09-01T22:01:05.902Z,3.50
2018-09-01T22:03:39.298Z,3.60
2018-09-01T22:06:08.143Z,3.50
2018-09-01T22:08:37.167Z,3.90
2018-09-01T22:11:06.012Z,3.80
2018-09-01T22:13:34.854Z,3.20
2018-09-01T22:16:03.611Z,3.87
2018-09-01T22:18:32.463Z,3.23
2018-09-01T22:21:01.247Z,3.30
2018-09-01T22:23:30.133Z,3.60
2018-09-01T22:25:59.138Z,3.97
2018-09-01T22:28:27.862Z,4.70
2018-09-01T22:30:56.958Z,3.67
2018-09-01T22:33:26.535Z,4.13
2018-09-01T22:35:55.367Z,3.20
2018-09-01T22:38:24.130Z,3.60
2018-09-01T22:40:54.034Z,3.40
2018-09-01T22:43:23.233Z,3.37
2018-09-01T22:45:52.414Z,3.60
2018-09-01T22:48:21.629Z,3.70
2018-09-01T22:50:50.390Z,3.30
2018-09-01T22:53:19.267Z,4.67
2018-09-01T22:55:48.284Z,4.50
2018-09-01T22:58:17.084Z,3.70
2018-09-01T23:00:46.281Z,4.30
2018-09-01T23:03:15.202Z,3.53
2018-09-01T23:05:43.989Z,4.20
2018-09-01T23:10:52.642Z,3.60
2018-09-01T23:13:21.937Z,3.93
2018-09-01T23:15:50.683Z,3.13
2018-09-01T23:18:19.441Z,3.10
2018-09-01T23:20:48.755Z,3.50
2018-09-01T23:23:17.806Z,3.30
2018-09-01T23:25:46.534Z,3.83
2018-09-01T23:28:15.323Z,3.00
2018-09-01T23:30:44.086Z,3.20
2018-09-01T23:33:13.002Z,4.43
2018-09-01T23:35:41.732Z,4.60
2018-09-01T23:38:10.529Z,3.47
2018-09-01T23:40:40.066Z,4.73
2018-09-01T23:43:08.818Z,4.20
2018-09-01T23:45:37.925Z,4.47
2018-09-01T23:48:07.031Z,5.33
2018-09-01T23:50:36.095Z,4.93
2018-09-01T23:53:05.006Z,4.03
2018-09-01T23:55:34.091Z,5.03
2018-09-01T23:58:03.220Z,5.47
